Terminal Aerodrome Forecast
Issued by NWS

Current Version | Previous Version | Text Only | Print | Product List | Glossary On
Versions: 1 2 3 4 5 6 7 8 9 10 11 12 13 14 15 16 17 18 19 20 21 22 23 24 25 26 27 28 29 30 31 32 33
000
FTUS41 KBOX 271137
TAFACK
TAF
KACK 271137Z 2712/2812 02040G55KT 1/4SM +SN FG BLSN OVC005
      WS020/02075KT
     FM271700 01033G50KT 1/2SM -SN FG BLSN OVC008 WS020/01075KT
     FM272000 35029G48KT 3/4SM -SN BR BLSN OVC008 WS020/34065KT
     FM280100 33023G46KT 1SM -SN BR OVC008 WS020/31045KT
     FM280500 32021G33KT 3SM -SN BR OVC020
     FM280700 32021G29KT P6SM OVC025=

USA.gov is the U.S. government's official web portal to all federal, state and local government web resources and services.